Time;durP1;ratioP1;P1;durP2;ratioP2;P2;SDS_P1;SDS_P2;PMS_P1;PMS_P2;Temp;Humidity;BMP_temperature;BMP_pressure;BME280_temperature;BME280_humidity;BME280_pressure;Samples;Min_cycle;Max_cycle;Signal;HPM_P1;HPM_P2
2022/04/08 00:00:20;;;;;;;26.17;13.83;;;;;;;6.19;100.00;99357.52;1769773;81;21064;-62
2022/04/08 00:02:50;;;;;;;27.27;14.70;;;;;;;6.25;100.00;99350.03;1769491;81;21110;-62
2022/04/08 00:05:16;;;;;;;27.70;14.55;;;;;;;6.32;100.00;99350.12;1769846;80;21504;-61
2022/04/08 00:07:44;;;;;;;26.55;14.50;;;;;;;6.34;100.00;99348.33;1769378;80;21079;-62
2022/04/08 00:10:13;;;;;;;24.00;13.62;;;;;;;6.36;100.00;99344.79;1769697;80;21021;-62
2022/04/08 00:12:42;;;;;;;23.67;13.53;;;;;;;6.39;100.00;99348.95;1769506;81;21028;-62
2022/04/08 00:15:10;;;;;;;21.90;13.20;;;;;;;6.34;100.00;99338.92;1769627;80;21437;-63
2022/04/08 00:17:38;;;;;;;24.07;13.80;;;;;;;6.37;100.00;99337.52;1769655;80;21067;-62
2022/04/08 00:20:08;;;;;;;22.70;13.48;;;;;;;6.46;100.00;99336.72;1769401;80;21509;-62
2022/04/08 00:22:41;;;;;;;22.22;13.25;;;;;;;6.48;100.00;99338.30;1769557;80;21033;-62
2022/04/08 00:25:10;;;;;;;22.45;13.15;;;;;;;6.50;100.00;99332.66;1769489;80;21047;-62
2022/04/08 00:27:38;;;;;;;20.12;13.30;;;;;;;6.42;100.00;99334.29;1769502;81;21075;-62
2022/04/08 00:30:09;;;;;;;22.13;12.95;;;;;;;6.46;100.00;99334.16;1769510;80;21079;-62
2022/04/08 00:32:36;;;;;;;18.80;12.70;;;;;;;6.57;100.00;99326.84;1769496;80;20996;-62
2022/04/08 00:35:04;;;;;;;20.30;12.75;;;;;;;6.58;100.00;99331.86;1769690;80;21044;-62
2022/04/08 00:37:32;;;;;;;18.98;12.40;;;;;;;6.57;100.00;99329.39;1769466;80;21032;-62
2022/04/08 00:39:59;;;;;;;17.55;11.70;;;;;;;6.54;100.00;99323.13;1769696;80;21001;-61
2022/04/08 00:42:27;;;;;;;21.30;12.95;;;;;;;6.56;100.00;99329.00;1769370;80;21080;-62
2022/04/08 00:44:55;;;;;;;19.77;12.20;;;;;;;6.56;100.00;99328.55;1769368;81;21056;-62
2022/04/08 00:47:22;;;;;;;20.65;12.35;;;;;;;6.59;100.00;99328.41;1769639;80;21517;-61
2022/04/08 00:49:53;;;;;;;20.90;12.90;;;;;;;6.65;100.00;99329.02;1769889;80;21032;-62
2022/04/08 00:52:22;;;;;;;20.12;12.45;;;;;;;6.70;100.00;99324.52;1769723;81;21032;-62
2022/04/08 00:54:51;;;;;;;20.85;12.75;;;;;;;6.69;100.00;99326.69;1769437;80;21039;-62
2022/04/08 00:57:18;;;;;;;20.20;12.75;;;;;;;6.70;100.00;99319.41;1769453;80;21114;-62
2022/04/08 00:59:47;;;;;;;22.85;13.18;;;;;;;6.74;100.00;99317.91;1769624;81;21000;-62
2022/04/08 01:02:15;;;;;;;19.80;12.37;;;;;;;6.78;100.00;99322.43;1769260;80;21068;-63
2022/04/08 01:04:44;;;;;;;24.23;13.40;;;;;;;6.91;100.00;99318.38;1769666;80;21595;-62
2022/04/08 01:07:11;;;;;;;19.95;12.78;;;;;;;7.13;100.00;99308.38;1769330;81;21036;-61
2022/04/08 01:09:40;;;;;;;22.90;12.80;;;;;;;7.22;100.00;99300.27;1769504;80;21071;-62
2022/04/08 01:12:09;;;;;;;20.35;12.55;;;;;;;7.33;100.00;99301.82;1769479;80;21489;-62
2022/04/08 01:14:41;;;;;;;20.10;12.78;;;;;;;7.33;100.00;99292.04;1769850;80;21020;-61
2022/04/08 01:17:09;;;;;;;21.48;13.40;;;;;;;7.34;100.00;99283.02;1770016;80;21016;-62
2022/04/08 01:19:38;;;;;;;19.25;12.75;;;;;;;7.35;100.00;99276.97;1769419;80;21039;-62
2022/04/08 01:22:07;;;;;;;20.60;12.82;;;;;;;7.38;100.00;99273.42;1769674;81;21036;-62
2022/04/08 01:24:36;;;;;;;19.87;12.47;;;;;;;7.46;100.00;99275.59;1769554;80;21540;-62
2022/04/08 01:27:04;;;;;;;22.82;13.22;;;;;;;7.49;100.00;99271.62;1769309;81;21039;-62
2022/04/08 01:29:32;;;;;;;20.15;12.80;;;;;;;7.53;100.00;99261.13;1769581;81;21126;-63
2022/04/08 01:32:00;;;;;;;22.65;12.70;;;;;;;7.59;100.00;99265.11;1769390;81;21034;-62
2022/04/08 01:34:27;;;;;;;19.30;12.73;;;;;;;7.57;100.00;99268.20;1769453;81;21028;-62
2022/04/08 01:36:55;;;;;;;20.68;12.58;;;;;;;7.48;100.00;99270.80;1769352;81;21516;-62
2022/04/08 01:39:22;;;;;;;20.00;13.00;;;;;;;7.39;100.00;99261.01;1769259;80;21067;-62
2022/04/08 01:41:50;;;;;;;22.05;12.82;;;;;;;7.33;100.00;99260.05;1769775;81;21028;-62
2022/04/08 01:44:20;;;;;;;22.02;13.00;;;;;;;7.28;100.00;99261.56;1769377;80;21052;-62
2022/04/08 01:46:48;;;;;;;20.05;12.75;;;;;;;7.22;100.00;99254.20;1769485;81;21036;-62
2022/04/08 01:49:16;;;;;;;19.45;12.37;;;;;;;7.15;100.00;99257.95;1769454;81;21071;-62
2022/04/08 01:51:43;;;;;;;19.15;13.18;;;;;;;7.10;100.00;99258.19;1769413;80;21009;-62
2022/04/08 01:54:11;;;;;;;21.40;13.40;;;;;;;7.09;100.00;99249.30;1769665;80;21488;-62
2022/04/08 01:56:39;;;;;;;21.40;13.62;;;;;;;7.13;100.00;99243.12;1769286;81;21076;-62
2022/04/08 01:59:08;;;;;;;23.05;14.35;;;;;;;7.14;100.00;99235.38;1769503;81;21069;-62
2022/04/08 02:01:35;;;;;;;21.65;14.30;;;;;;;7.19;100.00;99227.46;1769339;81;21059;-62
2022/04/08 02:04:03;;;;;;;24.27;14.20;;;;;;;7.26;100.00;99224.98;1769393;80;21040;-62
2022/04/08 02:06:32;;;;;;;21.80;13.72;;;;;;;7.33;100.00;99224.20;1769706;80;21555;-62
2022/04/08 02:09:00;;;;;;;24.65;14.98;;;;;;;7.34;100.00;99228.41;1769514;80;21512;-62
2022/04/08 02:11:28;;;;;;;23.90;14.40;;;;;;;7.40;100.00;99235.34;1769623;80;21004;-62
2022/04/08 02:13:55;;;;;;;23.57;13.90;;;;;;;7.44;100.00;99230.89;1769347;81;21052;-62
2022/04/08 02:16:25;;;;;;;23.27;14.10;;;;;;;7.46;100.00;99227.80;1769289;80;21561;-62
2022/04/08 02:18:53;;;;;;;25.57;14.40;;;;;;;7.50;100.00;99219.48;1769552;81;21038;-62
2022/04/08 02:21:21;;;;;;;22.70;14.68;;;;;;;7.50;100.00;99216.49;1769342;81;21008;-62
2022/04/08 02:23:51;;;;;;;25.00;13.83;;;;;;;7.55;100.00;99220.09;1769628;81;21040;-62
2022/04/08 02:26:19;;;;;;;24.30;13.83;;;;;;;7.55;100.00;99211.94;1769296;81;21032;-62
2022/04/08 02:28:48;;;;;;;22.02;13.43;;;;;;;7.58;100.00;99209.23;1769272;80;21051;-61
2022/04/08 02:31:15;;;;;;;22.90;14.53;;;;;;;7.61;100.00;99205.22;1769457;81;21036;-62
2022/04/08 02:33:43;;;;;;;22.52;14.38;;;;;;;7.64;100.00;99204.22;1769437;80;21040;-62
2022/04/08 02:36:12;;;;;;;22.30;14.68;;;;;;;7.62;100.00;99199.20;1769706;80;21040;-62
2022/04/08 02:38:42;;;;;;;22.17;14.70;;;;;;;7.61;100.00;99198.81;1769373;81;21063;-62
2022/04/08 02:41:09;;;;;;;25.75;14.95;;;;;;;7.65;100.00;99192.27;1769398;80;21044;-62
2022/04/08 02:43:37;;;;;;;21.65;13.53;;;;;;;7.66;100.00;99194.72;1769362;81;21009;-61
2022/04/08 02:46:04;;;;;;;20.68;13.68;;;;;;;7.67;100.00;99193.83;1769282;80;21033;-62
2022/04/08 02:48:32;;;;;;;23.10;15.23;;;;;;;7.68;100.00;99189.52;1769489;81;21079;-62
2022/04/08 02:51:01;;;;;;;21.12;13.90;;;;;;;7.70;100.00;99187.24;1769766;80;20997;-62
2022/04/08 02:53:28;;;;;;;24.27;14.87;;;;;;;7.69;100.00;99187.34;1769283;80;21036;-62
2022/04/08 02:55:55;;;;;;;25.85;15.30;;;;;;;7.70;100.00;99181.30;1769439;80;21068;-62
2022/04/08 02:58:23;;;;;;;23.05;14.25;;;;;;;7.69;100.00;99180.48;1769356;80;21001;-62
2022/04/08 03:00:51;;;;;;;24.30;14.90;;;;;;;7.71;100.00;99176.56;1769479;80;21064;-62
2022/04/08 03:03:20;;;;;;;21.73;14.07;;;;;;;7.70;100.00;99184.69;1769393;80;21059;-62
2022/04/08 03:05:47;;;;;;;21.50;14.10;;;;;;;7.69;100.00;99184.79;1769366;81;21517;-62
2022/04/08 03:08:14;;;;;;;22.93;14.18;;;;;;;7.67;100.00;99181.02;1775867;80;21040;-62
2022/04/08 03:10:43;;;;;;;25.25;14.80;;;;;;;7.68;100.00;99180.56;1786625;80;21012;-62
2022/04/08 03:13:12;;;;;;;24.57;14.23;;;;;;;7.70;100.00;99187.70;1786497;80;21031;-62
2022/04/08 03:15:41;;;;;;;23.12;14.50;;;;;;;7.70;100.00;99181.30;1786662;80;21015;-62
2022/04/08 03:18:08;;;;;;;23.92;14.23;;;;;;;7.68;100.00;99177.53;1786539;80;21098;-61
2022/04/08 03:20:37;;;;;;;24.65;15.03;;;;;;;7.74;100.00;99178.48;1786911;80;21016;-62
2022/04/08 03:23:05;;;;;;;23.35;14.43;;;;;;;7.77;100.00;99178.34;1786710;80;21480;-62
2022/04/08 03:25:32;;;;;;;22.42;14.85;;;;;;;7.81;100.00;99182.39;1786755;80;21555;-62
2022/04/08 03:28:00;;;;;;;20.60;13.88;;;;;;;7.94;100.00;99174.03;1786791;80;21011;-62
2022/04/08 03:30:27;;;;;;;23.07;13.95;;;;;;;8.03;100.00;99176.11;1786567;80;21027;-62
2022/04/08 03:32:55;;;;;;;21.85;14.47;;;;;;;8.15;100.00;99178.42;1786908;80;21082;-62
2022/04/08 03:35:23;;;;;;;22.10;14.10;;;;;;;8.21;100.00;99182.77;1786684;80;21066;-62
2022/04/08 03:37:50;;;;;;;22.00;14.18;;;;;;;8.26;100.00;99182.97;1786975;80;21058;-62
2022/04/08 03:40:18;;;;;;;23.95;14.68;;;;;;;8.29;100.00;99184.89;1786890;80;21476;-62
2022/04/08 03:42:46;;;;;;;24.35;14.15;;;;;;;8.31;100.00;99183.53;1786685;80;21074;-62
2022/04/08 03:45:15;;;;;;;23.20;14.15;;;;;;;8.39;100.00;99186.48;1787419;80;21123;-61
2022/04/08 03:47:42;;;;;;;24.40;13.32;;;;;;;8.48;100.00;99186.48;1786720;80;21102;-62
2022/04/08 03:50:10;;;;;;;21.90;14.40;;;;;;;8.49;100.00;99186.36;1787034;80;21538;-62
2022/04/08 03:52:38;;;;;;;23.52;13.95;;;;;;;8.52;100.00;99187.48;1786882;80;21567;-62
2022/04/08 03:55:07;;;;;;;23.62;14.07;;;;;;;8.50;100.00;99181.62;1786657;80;21067;-61
2022/04/08 03:57:34;;;;;;;26.27;14.50;;;;;;;8.53;100.00;99178.87;1787079;80;20995;-61
2022/04/08 04:00:03;;;;;;;22.40;13.55;;;;;;;8.53;100.00;99177.58;1786686;80;21534;-62
2022/04/08 04:02:32;;;;;;;24.30;14.00;;;;;;;8.59;100.00;99173.85;1786719;80;21113;-61
2022/04/08 04:04:59;;;;;;;23.98;13.70;;;;;;;8.62;100.00;99175.79;1786669;80;21027;-62
2022/04/08 04:07:27;;;;;;;22.45;14.20;;;;;;;8.63;100.00;99175.33;1786610;80;21071;-62
2022/04/08 04:09:55;;;;;;;24.45;13.90;;;;;;;8.72;100.00;99170.11;1770156;80;21008;-62
2022/04/08 04:12:22;;;;;;;19.60;13.32;;;;;;;8.78;100.00;99170.61;1769421;80;21052;-62
2022/04/08 04:14:51;;;;;;;24.00;13.25;;;;;;;8.81;100.00;99174.73;1769674;80;21064;-62
2022/04/08 04:17:19;;;;;;;22.02;14.05;;;;;;;8.84;100.00;99170.71;1769500;80;21079;-62
2022/04/08 04:19:48;;;;;;;21.85;14.07;;;;;;;8.87;100.00;99173.08;1769639;80;21517;-61
2022/04/08 04:22:17;;;;;;;22.50;13.00;;;;;;;9.09;100.00;99176.50;1754511;81;21036;-62
2022/04/08 04:24:46;;;;;;;20.70;13.25;;;;;;;9.19;100.00;99177.60;1735022;82;21026;-62
2022/04/08 04:27:14;;;;;;;22.62;12.78;;;;;;;9.33;100.00;99173.39;1739480;82;21036;-62
2022/04/08 04:29:41;;;;;;;20.10;13.65;;;;;;;9.42;100.00;99177.95;1739245;82;21025;-62
2022/04/08 04:32:10;;;;;;;21.48;12.85;;;;;;;9.42;100.00;99181.34;1739192;82;21028;-62
2022/04/08 04:34:38;;;;;;;20.15;12.95;;;;;;;9.55;100.00;99184.02;1739483;82;21080;-62
2022/04/08 04:37:08;;;;;;;24.63;13.40;;;;;;;9.62;100.00;99180.59;1739181;82;21056;-62
2022/04/08 04:39:36;;;;;;;22.50;13.48;;;;;;;9.71;100.00;99175.34;1739381;82;21072;-62
2022/04/08 04:42:07;;;;;;;23.62;13.68;;;;;;;9.82;100.00;99177.63;1739539;82;21064;-62
2022/04/08 04:44:35;;;;;;;20.35;13.88;;;;;;;9.91;100.00;99172.83;1739252;82;21024;-62
2022/04/08 04:47:04;;;;;;;21.45;13.93;;;;;;;9.97;100.00;99170.69;1739249;82;21081;-62
2022/04/08 04:49:31;;;;;;;23.42;13.55;;;;;;;10.05;100.00;99161.20;1739492;82;21579;-62
2022/04/08 04:51:58;;;;;;;19.05;13.10;;;;;;;10.15;100.00;99169.98;1739513;82;21036;-63
2022/04/08 04:54:25;;;;;;;19.87;13.15;;;;;;;10.27;100.00;99171.42;1739231;82;21048;-62
2022/04/08 04:56:53;;;;;;;23.42;14.10;;;;;;;10.35;100.00;99173.07;1739195;82;21084;-62
2022/04/08 04:59:20;;;;;;;21.52;13.10;;;;;;;10.42;100.00;99166.59;1739460;82;21071;-62
2022/04/08 05:01:47;;;;;;;19.40;12.93;;;;;;;10.51;100.00;99177.58;1739153;82;21036;-62
2022/04/08 05:04:16;;;;;;;17.98;11.85;;;;;;;10.70;100.00;99175.09;1739453;82;21048;-62
2022/04/08 05:06:43;;;;;;;20.45;12.75;;;;;;;10.79;100.00;99186.08;1739335;82;21009;-62
2022/04/08 05:09:10;;;;;;;19.75;12.63;;;;;;;10.89;100.00;99183.25;1707090;82;21527;-62
2022/04/08 05:11:39;;;;;;;17.32;11.88;;;;;;;10.98;100.00;99171.50;1696657;84;21042;-62
2022/04/08 05:14:09;;;;;;;21.20;11.95;;;;;;;11.11;100.00;99171.05;1696723;84;21653;-62
2022/04/08 05:16:38;;;;;;;15.93;12.05;;;;;;;11.15;100.00;99162.19;1696951;84;21015;-62
2022/04/08 05:19:06;;;;;;;21.60;12.45;;;;;;;11.21;100.00;99164.34;1696733;83;21082;-62
2022/04/08 05:21:36;;;;;;;17.45;11.95;;;;;;;11.30;100.00;99158.20;1696647;84;21062;-62
2022/04/08 05:24:04;;;;;;;21.50;12.53;;;;;;;11.23;100.00;99166.34;1696861;83;21042;-63
2022/04/08 05:26:32;;;;;;;19.30;12.00;;;;;;;11.37;100.00;99158.94;1696891;84;21054;-62
2022/04/08 05:29:00;;;;;;;20.23;12.07;;;;;;;11.61;100.00;99156.89;1696996;84;21507;-63
2022/04/08 05:31:29;;;;;;;18.30;11.78;;;;;;;11.75;100.00;99153.34;1696540;84;21042;-62
2022/04/08 05:33:57;;;;;;;19.80;11.38;;;;;;;11.89;100.00;99150.64;1696785;84;21605;-62
2022/04/08 05:36:24;;;;;;;23.05;12.85;;;;;;;11.92;100.00;99150.44;1696832;84;21094;-62
2022/04/08 05:38:55;;;;;;;22.15;12.35;;;;;;;12.00;100.00;99142.97;1696748;84;21035;-62
2022/04/08 05:41:22;;;;;;;27.25;11.85;;;;;;;12.23;100.00;99144.35;1697166;84;21499;-62
2022/04/08 05:43:50;;;;;;;18.48;11.65;;;;;;;12.47;100.00;99142.18;1696592;84;21089;-62
2022/04/08 05:46:19;;;;;;;21.52;11.57;;;;;;;12.67;100.00;99147.97;1696782;84;21058;-63
2022/04/08 05:48:47;;;;;;;17.25;11.55;;;;;;;12.96;100.00;99144.98;1696771;84;21002;-62
2022/04/08 05:51:14;;;;;;;20.35;11.30;;;;;;;13.21;100.00;99149.09;1696675;84;21039;-63
2022/04/08 05:53:41;;;;;;;16.73;11.75;;;;;;;13.38;100.00;99144.78;1696789;84;21130;-63
2022/04/08 05:56:10;;;;;;;17.98;11.40;;;;;;;13.63;100.00;99140.28;1706382;83;21042;-63
2022/04/08 05:58:37;;;;;;;15.72;10.63;;;;;;;13.88;100.00;99126.21;1710354;83;21054;-63
2022/04/08 06:01:05;;;;;;;17.37;11.20;;;;;;;13.98;100.00;99126.30;1712873;83;21534;-63
2022/04/08 06:03:32;;;;;;;19.32;11.53;;;;;;;14.12;100.00;99139.42;1710731;83;21011;-63
2022/04/08 06:06:00;;;;;;;16.40;11.38;;;;;;;14.12;99.47;99138.13;1710015;83;21002;-63
2022/04/08 06:08:27;;;;;;;14.38;10.50;;;;;;;14.07;99.21;99139.80;1712009;82;21018;-63
2022/04/08 06:10:55;;;;;;;15.60;10.58;;;;;;;14.11;99.88;99135.18;1711470;83;21015;-62
2022/04/08 06:13:28;;;;;;;16.12;11.08;;;;;;;14.12;100.00;99129.89;1709849;82;21019;-63
2022/04/08 06:15:55;;;;;;;17.75;11.10;;;;;;;14.03;99.40;99130.17;1710712;83;20996;-62
2022/04/08 06:18:22;;;;;;;16.57;10.98;;;;;;;13.95;99.09;99131.70;1712698;83;21003;-62
2022/04/08 06:20:51;;;;;;;19.48;11.08;;;;;;;14.03;99.54;99127.58;1710532;83;21046;-62
2022/04/08 06:23:19;;;;;;;14.05;10.23;;;;;;;14.18;100.00;99126.80;1710079;83;21046;-62
2022/04/08 06:25:48;;;;;;;16.10;10.82;;;;;;;14.46;98.42;99129.73;1712774;83;21464;-62
2022/04/08 06:28:15;;;;;;;16.15;10.35;;;;;;;14.52;97.90;99131.81;1711403;83;20991;-63
2022/04/08 06:30:42;;;;;;;17.48;10.75;;;;;;;14.63;97.47;99138.72;1709574;83;21074;-63
2022/04/08 06:33:11;;;;;;;19.90;10.50;;;;;;;14.86;96.71;99144.56;1707366;83;21515;-63
2022/04/08 06:35:39;;;;;;;17.62;10.93;;;;;;;15.02;95.76;99141.06;1714734;83;21062;-62
2022/04/08 06:38:08;;;;;;;18.42;10.08;;;;;;;15.20;94.81;99145.13;1725622;83;21241;-63
2022/04/08 06:40:38;;;;;;;17.87;10.13;;;;;;;15.28;94.13;99147.56;1725517;82;21063;-63
2022/04/08 06:43:07;;;;;;;13.85;10.25;;;;;;;15.42;92.97;99138.93;1707952;83;21071;-63
2022/04/08 06:45:34;;;;;;;17.85;11.03;;;;;;;15.36;92.06;99136.87;1709417;83;21070;-63
2022/04/08 06:48:04;;;;;;;17.98;11.10;;;;;;;15.28;91.25;99138.48;1696714;84;21097;-64
2022/04/08 06:50:33;;;;;;;20.27;10.10;;;;;;;15.14;91.92;99145.66;1696869;84;21011;-62
2022/04/08 06:53:01;;;;;;;19.70;10.68;;;;;;;15.35;91.80;99139.13;1696608;84;21038;-63
2022/04/08 06:55:31;;;;;;;17.45;10.55;;;;;;;15.47;91.25;99146.34;1696729;83;21081;-63
2022/04/08 06:58:02;;;;;;;15.58;9.95;;;;;;;15.66;91.39;99146.84;1696860;84;21098;-63
2022/04/08 07:00:32;;;;;;;18.52;10.40;;;;;;;15.71;89.99;99151.14;1696616;84;21106;-64
2022/04/08 07:02:59;;;;;;;16.23;9.60;;;;;;;15.85;89.03;99150.45;1697075;84;21110;-63
2022/04/08 07:05:29;;;;;;;18.30;9.93;;;;;;;15.91;88.93;99152.52;1695656;84;22227;-63
2022/04/08 07:07:56;;;;;;;21.60;10.28;;;;;;;15.99;88.11;99157.84;1696125;83;21539;-63
2022/04/08 07:10:23;;;;;;;14.58;9.80;;;;;;;15.88;87.34;99160.09;1695984;83;21118;-63
2022/04/08 07:12:53;;;;;;;16.15;10.25;;;;;;;16.03;88.28;99161.81;1695978;84;21094;-63
2022/04/08 07:15:22;;;;;;;15.85;9.28;;;;;;;16.18;87.94;99156.56;1696190;84;21094;-63
2022/04/08 07:17:49;;;;;;;16.45;9.78;;;;;;;16.27;86.47;99158.81;1696035;84;21054;-63
2022/04/08 07:20:18;;;;;;;16.95;9.98;;;;;;;16.23;85.82;99158.27;1695845;84;21078;-63
2022/04/08 07:22:47;;;;;;;18.85;9.40;;;;;;;16.31;86.13;99152.88;1696029;84;21089;-63
2022/04/08 07:25:16;;;;;;;18.05;8.98;;;;;;;16.46;86.01;99147.58;1696322;84;21086;-63
2022/04/08 07:27:51;;;;;;;15.68;9.23;;;;;;;16.71;85.83;99144.89;1696044;84;21550;-62
2022/04/08 07:30:22;;;;;;;15.13;9.10;;;;;;;17.09;83.76;99150.13;1696136;84;21042;-63
2022/04/08 07:32:54;;;;;;;14.73;8.75;;;;;;;17.22;82.21;99153.23;1695969;84;21046;-62
2022/04/08 07:35:25;;;;;;;17.15;8.75;;;;;;;17.42;81.43;99149.58;1695998;84;21039;-63
2022/04/08 07:37:53;;;;;;;14.50;8.25;;;;;;;17.51;81.28;99153.08;1696286;84;21069;-63
2022/04/08 07:40:23;;;;;;;16.70;8.23;;;;;;;17.74;80.62;99152.67;1695989;84;21125;-63
2022/04/08 07:42:50;;;;;;;13.98;7.78;;;;;;;17.81;80.22;99149.83;1695841;84;21105;-63
2022/04/08 07:45:19;;;;;;;17.37;8.30;;;;;;;18.00;78.38;99152.34;1696173;84;21062;-63
2022/04/08 07:47:49;;;;;;;19.67;7.87;;;;;;;18.22;77.92;99150.23;1695999;84;21058;-63
2022/04/08 07:50:16;;;;;;;17.65;7.58;;;;;;;18.26;77.33;99149.45;1696136;83;21078;-64
2022/04/08 07:52:45;;;;;;;9.85;6.97;;;;;;;18.52;77.86;99147.70;1695935;84;21082;-63
2022/04/08 07:55:14;;;;;;;12.23;8.20;;;;;;;18.51;77.08;99151.75;1695892;84;21031;-64
2022/04/08 07:57:50;;;;;;;15.40;7.80;;;;;;;18.47;76.43;99154.33;1670027;84;21094;-63
2022/04/08 08:00:21;;;;;;;12.03;7.17;;;;;;;18.35;75.17;99153.28;1695594;83;21073;-63
2022/04/08 08:02:50;;;;;;;14.50;7.25;;;;;;;18.20;76.48;99156.89;1696167;84;21082;-63
2022/04/08 08:05:34;;;;;;;13.60;7.75;;;;;;;18.26;76.51;99154.17;1695925;83;21078;-63
2022/04/08 08:08:21;;;;;;;14.33;7.47;;;;;;;18.45;76.84;99151.90;1695050;83;21506;-63
2022/04/08 08:11:11;;;;;;;16.45;7.67;;;;;;;18.75;76.29;99153.71;1695911;82;21562;-64
2022/04/08 08:13:55;;;;;;;11.12;7.20;;;;;;;18.91;73.16;99148.63;1695056;84;21003;-63
2022/04/08 08:16:47;;;;;;;12.70;6.62;;;;;;;19.06;74.17;99146.73;1693925;84;21094;-63
2022/04/08 08:19:28;;;;;;;12.55;6.45;;;;;;;19.28;72.90;99141.46;1692965;84;21531;-63
2022/04/08 08:22:17;;;;;;;10.13;6.10;;;;;;;19.67;73.37;99141.77;1640088;87;21631;-62
2022/04/08 08:24:54;;;;;;;13.13;5.35;;;;;;;19.75;72.80;99143.12;1686163;83;21066;-63
2022/04/08 08:27:22;;;;;;;12.85;5.03;;;;;;;19.91;71.72;99146.72;1696148;84;22700;-63
2022/04/08 08:29:49;;;;;;;9.85;5.53;;;;;;;19.94;70.77;99141.19;1696251;84;21718;-63
2022/04/08 08:32:16;;;;;;;11.03;5.37;;;;;;;19.76;70.32;99139.52;1696006;84;21042;-63
2022/04/08 08:34:44;;;;;;;13.60;5.62;;;;;;;19.56;71.01;99147.27;1695905;84;21336;-64
2022/04/08 08:37:13;;;;;;;15.10;5.62;;;;;;;19.18;71.95;99142.88;1696113;84;21226;-63
2022/04/08 08:39:40;;;;;;;12.13;5.20;;;;;;;19.19;72.76;99144.53;1696016;84;21531;-63
2022/04/08 08:42:09;;;;;;;9.68;4.90;;;;;;;19.24;72.99;99144.05;1696189;84;21086;-62
2022/04/08 08:44:36;;;;;;;10.93;5.00;;;;;;;19.03;72.87;99145.77;1670327;84;21003;-63
2022/04/08 08:47:08;;;;;;;19.00;4.87;;;;;;;19.09;72.46;99138.13;1696236;84;21069;-63
2022/04/08 08:49:37;;;;;;;13.50;4.90;;;;;;;19.14;74.21;99131.97;1695636;84;21038;-63
2022/04/08 08:52:07;;;;;;;13.30;4.85;;;;;;;19.24;73.56;99134.92;1670159;84;20987;-64
2022/04/08 08:54:35;;;;;;;12.15;4.12;;;;;;;19.26;73.27;99135.13;1670677;84;21018;-64
2022/04/08 08:57:03;;;;;;;10.70;4.92;;;;;;;19.05;72.41;99134.69;1695937;84;21132;-64
2022/04/08 08:59:31;;;;;;;10.85;4.58;;;;;;;19.07;72.16;99124.92;1696196;83;21567;-63
2022/04/08 09:02:03;;;;;;;14.53;5.67;;;;;;;19.10;73.00;99121.98;1696028;83;21034;-63
2022/04/08 09:04:31;;;;;;;13.25;5.53;;;;;;;19.03;72.41;99120.98;1669914;84;21117;-63
2022/04/08 09:06:59;;;;;;;13.62;6.22;;;;;;;19.01;73.01;99121.95;1670261;84;21069;-62
2022/04/08 09:09:33;;;;;;;16.02;6.03;;;;;;;18.92;71.93;99116.37;1699633;83;21098;-63
2022/04/08 09:12:15;;;;;;;16.15;6.33;;;;;;;18.96;72.12;99108.57;1721795;83;21094;-62
2022/04/08 09:14:55;;;;;;;16.48;6.50;;;;;;;19.04;72.47;99119.53;1721919;83;21093;-63
2022/04/08 09:17:27;;;;;;;16.45;7.30;;;;;;;19.00;71.39;99123.42;1721896;83;21022;-62
2022/04/08 09:19:59;;;;;;;12.80;6.22;;;;;;;18.92;72.95;99112.47;1703771;84;20993;-63
2022/04/08 09:22:32;;;;;;;11.40;6.78;;;;;;;19.11;71.34;99112.70;1722059;83;21035;-62
2022/04/08 09:25:13;;;;;;;19.43;7.30;;;;;;;19.21;71.25;99124.33;1710449;83;20999;-62
2022/04/08 09:27:43;;;;;;;10.93;6.60;;;;;;;19.21;72.07;99115.19;1721850;83;21583;-62
2022/04/08 09:30:14;;;;;;;16.12;7.10;;;;;;;19.20;70.75;99109.17;1721994;83;21107;-62
2022/04/08 09:32:45;;;;;;;18.20;7.83;;;;;;;19.24;70.92;99111.45;1722011;83;21046;-62
2022/04/08 09:35:23;;;;;;;13.72;6.78;;;;;;;18.98;71.30;99115.75;1721858;83;21087;-62
2022/04/08 09:38:01;;;;;;;16.60;6.85;;;;;;;18.88;71.68;99111.64;1721941;83;21511;-62
2022/04/08 09:40:42;;;;;;;14.20;6.95;;;;;;;18.93;71.35;99105.45;1721545;83;21059;-63
2022/04/08 09:43:12;;;;;;;17.90;6.90;;;;;;;18.84;71.73;99109.81;1691451;85;21125;-61
2022/04/08 09:45:41;;;;;;;15.10;6.10;;;;;;;18.63;72.68;99117.95;1721961;83;21091;-62
2022/04/08 09:48:10;;;;;;;13.43;6.37;;;;;;;18.65;72.80;99125.63;1721898;83;21066;-62
2022/04/08 09:50:40;;;;;;;11.85;6.33;;;;;;;18.90;71.79;99120.12;1710197;83;21041;-61
2022/04/08 09:53:12;;;;;;;13.88;5.83;;;;;;;19.35;70.58;99117.70;1721850;83;21526;-62
2022/04/08 09:55:44;;;;;;;10.70;5.75;;;;;;;19.57;69.58;99127.54;1724077;82;21107;-62
2022/04/08 09:58:14;;;;;;;12.37;6.22;;;;;;;19.81;70.05;99128.11;1734422;82;21443;-64
2022/04/08 10:00:46;;;;;;;12.55;6.55;;;;;;;20.02;69.67;99130.75;1703300;83;21094;-62
2022/04/08 10:03:14;;;;;;;16.27;6.10;;;;;;;20.24;67.35;99121.95;1740337;82;21015;-63
2022/04/08 10:05:43;;;;;;;11.38;6.70;;;;;;;20.18;69.15;99135.97;1744820;82;21355;-62
2022/04/08 10:08:12;;;;;;;14.98;6.70;;;;;;;20.34;67.89;99134.35;1740538;82;21045;-62
2022/04/08 10:10:54;;;;;;;10.15;6.70;;;;;;;20.78;67.19;99126.97;1713506;83;21055;-63
2022/04/08 10:13:43;;;;;;;18.65;8.80;;;;;;;20.85;66.46;99136.26;1735245;82;21063;-63
2022/04/08 10:16:20;;;;;;;15.18;6.40;;;;;;;21.06;66.45;99137.00;1739848;82;21041;-64
2022/04/08 10:18:54;;;;;;;13.32;6.05;;;;;;;21.61;64.54;99134.00;1692763;85;21063;-63
2022/04/08 10:21:20;;;;;;;15.63;5.78;;;;;;;21.92;63.94;99138.42;1739953;82;21020;-62
2022/04/08 10:23:58;;;;;;;10.75;5.75;;;;;;;21.48;63.80;99137.69;1740138;82;21055;-63
2022/04/08 10:26:28;;;;;;;11.57;5.78;;;;;;;21.25;63.76;99141.51;1739802;82;21043;-62
2022/04/08 10:28:57;;;;;;;10.43;5.60;;;;;;;21.91;64.05;99137.58;1740209;82;21019;-62
2022/04/08 10:31:29;;;;;;;14.45;6.00;;;;;;;22.15;62.97;99144.95;1737358;82;21636;-63
2022/04/08 10:34:00;;;;;;;12.40;5.15;;;;;;;22.35;61.77;99143.50;1718149;83;21045;-63
2022/04/08 10:36:38;;;;;;;13.13;4.90;;;;;;;22.35;61.12;99136.95;1710801;83;21008;-64
2022/04/08 10:39:17;;;;;;;11.93;4.60;;;;;;;21.98;61.99;99144.27;1708747;84;21133;-62
2022/04/08 10:41:48;;;;;;;13.98;4.55;;;;;;;21.43;62.46;99136.06;1734330;80;21528;-62
2022/04/08 10:44:33;;;;;;;11.63;4.67;;;;;;;21.54;63.45;99137.00;1745253;82;20968;-63
2022/04/08 10:47:11;;;;;;;11.80;4.33;;;;;;;21.29;61.73;99134.48;1708237;82;21508;-62
2022/04/08 10:49:56;;;;;;;13.05;5.05;;;;;;;20.96;63.32;99138.50;1758660;80;21011;-63
2022/04/08 10:52:28;;;;;;;12.35;5.28;;;;;;;20.60;63.55;99142.05;1756719;80;21359;-62
2022/04/08 10:55:13;;;;;;;12.90;4.80;;;;;;;20.58;64.45;99144.81;1746523;82;20963;-62
2022/04/08 10:57:45;;;;;;;9.68;4.40;;;;;;;20.98;64.14;99143.57;1713773;83;21494;-62
2022/04/08 11:00:19;;;;;;;7.70;4.42;;;;;;;20.85;63.67;99144.61;1742394;82;20995;-64
2022/04/08 11:02:48;;;;;;;15.75;4.47;;;;;;;20.65;64.60;99141.03;1741755;82;21055;-63
2022/04/08 11:05:17;;;;;;;9.10;4.67;;;;;;;20.41;64.79;99138.73;1707328;83;21095;-63
2022/04/08 11:07:48;;;;;;;11.10;5.25;;;;;;;20.63;65.11;99139.08;1742024;80;21065;-63
2022/04/08 11:10:21;;;;;;;11.85;4.92;;;;;;;20.51;64.54;99139.87;1695787;83;21056;-64
2022/04/08 11:12:52;;;;;;;11.28;4.85;;;;;;;20.38;65.36;99139.08;1720360;83;21034;-62
2022/04/08 11:15:28;;;;;;;13.18;4.22;;;;;;;20.11;65.40;99153.77;1718689;83;21295;-62
2022/04/08 11:17:55;;;;;;;13.68;4.37;;;;;;;20.02;65.71;99156.87;1721237;83;21027;-62
2022/04/08 11:20:23;;;;;;;12.78;4.62;;;;;;;19.73;65.60;99158.12;1720666;83;21043;-62
2022/04/08 11:22:54;;;;;;;13.03;4.67;;;;;;;19.81;66.25;99158.14;1719095;83;21519;-62
2022/04/08 11:25:27;;;;;;;11.03;5.00;;;;;;;19.88;65.83;99154.39;1707091;83;21058;-63
2022/04/08 11:28:10;;;;;;;11.45;4.50;;;;;;;19.81;64.84;99150.31;1664952;85;21507;-63
2022/04/08 11:30:39;;;;;;;10.53;4.30;;;;;;;19.91;65.98;99155.86;1701650;83;21606;-60